Terminal Aerodrome Forecast
Issued by NWS Jackson, MS

Home | Current Version | Previous Version | Text Only | Print | Product List | Glossary On
Versions: 1 2 3 4 5 6 7 8 9 10 11 12 13
000
FTUS44 KJAN 310500
TAFJAN
TAF
KJAN 310529Z 3106/0106 06003KT P6SM OVC200
     FM311200 04005KT P6SM OVC100
     FM311900 02007KT P6SM VCSH BKN080 OVC100
     FM010000 08003KT P6SM BKN090=

USA.gov is the U.S. government's official web portal to all federal, state and local government web resources and services.